createdAt,value
2023-04-11T00:01:07.701Z,11.23
2023-04-11T00:03:34.575Z,11.29
2023-04-11T00:06:01.199Z,11.20
2023-04-11T00:08:27.678Z,11.27
2023-04-11T00:10:54.166Z,11.38
2023-04-11T00:13:20.791Z,11.35
2023-04-11T00:15:47.841Z,11.32
2023-04-11T00:18:14.361Z,11.40
2023-04-11T00:20:40.808Z,11.46
2023-04-11T00:23:08.822Z,11.47
2023-04-11T00:25:37.241Z,11.45
2023-04-11T00:28:04.301Z,11.55
2023-04-11T00:30:30.775Z,11.51
2023-04-11T00:32:57.246Z,11.58
2023-04-11T00:35:23.676Z,11.54
2023-04-11T00:37:55.937Z,11.53
2023-04-11T00:40:23.028Z,11.46
2023-04-11T00:42:49.489Z,11.54
2023-04-11T00:45:15.997Z,11.43
2023-04-11T00:47:42.578Z,11.60
2023-04-11T00:50:09.513Z,11.59
2023-04-11T00:52:37.969Z,11.36
2023-04-11T00:55:04.992Z,11.38
2023-04-11T00:57:32.212Z,11.29
2023-04-11T01:00:00.203Z,11.34
2023-04-11T01:02:26.862Z,11.34
2023-04-11T01:04:53.565Z,11.25
2023-04-11T01:07:22.317Z,11.31
2023-04-11T01:09:49.873Z,11.28
2023-04-11T01:12:17.406Z,11.42
2023-04-11T01:14:47.672Z,11.35
2023-04-11T01:17:15.319Z,11.37
2023-04-11T01:19:41.908Z,11.37
2023-04-11T01:22:11.144Z,11.31
2023-04-11T01:24:37.649Z,11.42
2023-04-11T01:27:04.212Z,11.34
2023-04-11T01:29:31.623Z,11.41
2023-04-11T01:31:58.086Z,11.32
2023-04-11T01:34:28.303Z,11.32
2023-04-11T01:36:55.475Z,11.39
2023-04-11T01:39:22.025Z,11.37
2023-04-11T01:41:50.657Z,11.41
2023-04-11T01:44:19.048Z,11.41
2023-04-11T01:46:46.482Z,11.36
2023-04-11T01:49:17.655Z,11.31
2023-04-11T01:51:44.438Z,11.34
2023-04-11T01:54:10.958Z,11.23
2023-04-11T01:56:37.423Z,11.34
2023-04-11T01:59:04.410Z,11.34
2023-04-11T02:01:32.042Z,11.30
2023-04-11T02:03:58.789Z,11.22
2023-04-11T02:06:27.399Z,11.38
2023-04-11T02:08:54.595Z,11.28
2023-04-11T02:11:21.376Z,11.22
2023-04-11T02:13:47.952Z,11.26
2023-04-11T02:16:18.162Z,11.16
2023-04-11T02:18:45.684Z,11.12
2023-04-11T02:21:12.330Z,11.22
2023-04-11T02:23:38.806Z,11.19
2023-04-11T02:26:05.357Z,11.15
2023-04-11T02:28:31.817Z,11.20
2023-04-11T02:30:58.410Z,11.04
2023-04-11T02:33:24.934Z,11.19
2023-04-11T02:35:51.452Z,11.13
2023-04-11T02:38:17.997Z,10.93
2023-04-11T02:40:44.490Z,11.12
2023-04-11T02:43:10.968Z,11.03
2023-04-11T02:45:37.434Z,11.02
2023-04-11T02:48:04.445Z,10.99
2023-04-11T02:50:31.578Z,10.94
2023-04-11T02:52:58.037Z,11.00
2023-04-11T02:55:24.643Z,11.01
2023-04-11T02:57:51.742Z,11.01
2023-04-11T03:00:22.022Z,10.95
2023-04-11T03:02:49.473Z,10.86
2023-04-11T03:05:16.115Z,10.96
2023-04-11T03:07:44.039Z,10.93
2023-04-11T03:10:10.791Z,10.93
2023-04-11T03:12:37.333Z,10.98
2023-04-11T03:15:04.126Z,10.94
2023-04-11T03:17:30.766Z,11.04
2023-04-11T03:19:57.218Z,11.01
2023-04-11T03:22:24.486Z,10.96
2023-04-11T03:24:51.175Z,10.95
2023-04-11T03:27:17.670Z,10.94
2023-04-11T03:29:44.113Z,10.87
2023-04-11T03:32:10.698Z,10.77
2023-04-11T03:34:37.202Z,10.96
2023-04-11T03:37:03.759Z,10.92
2023-04-11T03:39:30.288Z,10.90
2023-04-11T03:41:57.744Z,10.84
2023-04-11T03:44:24.218Z,10.76
2023-04-11T03:46:50.764Z,10.75
2023-04-11T03:49:17.256Z,10.80
2023-04-11T03:51:43.823Z,10.78
2023-04-11T03:54:10.284Z,10.79
2023-04-11T03:56:36.776Z,10.72
2023-04-11T03:59:03.257Z,10.74
2023-04-11T04:01:29.713Z,10.76
2023-04-11T04:03:56.630Z,10.64
2023-04-11T04:06:23.395Z,10.72
2023-04-11T04:08:49.824Z,10.74
2023-04-11T04:11:16.318Z,10.72
2023-04-11T04:13:42.735Z,10.77
2023-04-11T04:16:09.571Z,10.75
2023-04-11T04:18:36.173Z,10.81
2023-04-11T04:21:02.838Z,10.83
2023-04-11T04:23:30.007Z,10.67
2023-04-11T04:25:58.147Z,10.77
2023-04-11T04:28:26.147Z,10.80
2023-04-11T04:30:54.245Z,10.71
2023-04-11T04:33:21.461Z,10.64
2023-04-11T04:35:48.078Z,10.52
2023-04-11T04:38:17.683Z,10.59
2023-04-11T04:40:44.510Z,10.62
2023-04-11T04:43:18.400Z,10.55
2023-04-11T04:45:45.695Z,10.55
2023-04-11T04:48:17.096Z,10.48
2023-04-11T04:50:45.569Z,10.41
2023-04-11T04:53:12.130Z,10.41
2023-04-11T04:55:38.574Z,10.41
2023-04-11T04:58:05.048Z,10.36
2023-04-11T05:00:33.488Z,10.38
2023-04-11T05:03:00.110Z,10.25
2023-04-11T05:05:26.691Z,10.22
2023-04-11T05:07:53.146Z,10.20
2023-04-11T05:10:19.728Z,10.22
2023-04-11T05:12:46.475Z,10.02
2023-04-11T05:15:14.774Z,9.81
2023-04-11T05:17:41.229Z,9.59
2023-04-11T05:20:09.086Z,9.53
2023-04-11T05:22:36.345Z,9.40
2023-04-11T05:25:02.807Z,9.35
2023-04-11T05:27:29.276Z,9.29
2023-04-11T05:29:55.807Z,9.39
2023-04-11T05:32:22.356Z,9.50
2023-04-11T05:34:58.830Z,9.55
2023-04-11T05:37:26.153Z,9.61
2023-04-11T05:39:53.044Z,9.62
2023-04-11T05:42:19.544Z,9.69
2023-04-11T05:44:46.024Z,9.68
2023-04-11T05:47:12.611Z,9.76
2023-04-11T05:49:39.097Z,9.87
2023-04-11T05:52:05.605Z,9.93
2023-04-11T05:54:33.929Z,9.98
2023-04-11T05:57:02.005Z,10.02
2023-04-11T05:59:30.661Z,9.99
2023-04-11T06:01:57.781Z,9.63
2023-04-11T06:04:24.833Z,9.53
2023-04-11T06:06:52.962Z,9.31
2023-04-11T06:09:19.962Z,9.20
2023-04-11T06:11:46.601Z,9.10
2023-04-11T06:14:13.067Z,9.07
2023-04-11T06:16:39.751Z,9.14
2023-04-11T06:19:06.249Z,9.02
2023-04-11T06:21:32.883Z,9.09
2023-04-11T06:24:05.684Z,9.10
2023-04-11T06:26:32.141Z,9.11
2023-04-11T06:28:58.662Z,9.12
2023-04-11T06:31:25.545Z,9.27
2023-04-11T06:33:52.036Z,9.40
2023-04-11T06:36:18.580Z,9.43
2023-04-11T06:38:54.756Z,9.47
2023-04-11T06:41:21.237Z,9.58
2023-04-11T06:43:47.717Z,9.76
2023-04-11T06:46:14.263Z,9.86
2023-04-11T06:48:40.724Z,9.92
2023-04-11T06:51:09.067Z,9.99
2023-04-11T06:53:35.544Z,10.08
2023-04-11T06:56:02.157Z,10.07
2023-04-11T06:58:28.641Z,10.16
2023-04-11T07:00:55.135Z,10.10
2023-04-11T07:03:25.142Z,10.26
2023-04-11T07:05:52.097Z,10.25
2023-04-11T07:08:18.649Z,10.10
2023-04-11T07:10:45.261Z,10.30
2023-04-11T07:13:11.771Z,10.43
2023-04-11T07:15:38.263Z,10.47
2023-04-11T07:18:04.864Z,10.47
2023-04-11T07:20:32.998Z,10.54
2023-04-11T07:22:59.489Z,10.49
2023-04-11T07:25:33.770Z,10.45
2023-04-11T07:28:00.862Z,10.61
2023-04-11T07:30:28.208Z,10.76
2023-04-11T07:32:54.822Z,10.88
2023-04-11T07:35:22.178Z,10.76
2023-04-11T07:37:48.647Z,10.92
2023-04-11T07:40:15.484Z,10.79
2023-04-11T07:42:42.321Z,10.83
2023-04-11T07:45:09.495Z,11.08
2023-04-11T07:47:36.054Z,11.11
2023-04-11T07:50:03.406Z,10.98
2023-04-11T07:52:30.345Z,10.98
2023-04-11T07:54:56.891Z,11.04
2023-04-11T07:57:23.478Z,11.15
2023-04-11T07:59:49.971Z,11.24
2023-04-11T08:02:16.591Z,11.18
2023-04-11T08:04:43.251Z,11.08
2023-04-11T08:07:09.828Z,11.39
2023-04-11T08:09:36.291Z,11.54
2023-04-11T08:12:03.458Z,11.47
2023-04-11T08:14:29.946Z,11.62
2023-04-11T08:16:56.453Z,11.59
2023-04-11T08:19:22.949Z,11.56
2023-04-11T08:21:49.481Z,11.32
2023-04-11T08:24:16.192Z,11.51
2023-04-11T08:26:42.641Z,11.55
2023-04-11T08:29:11.416Z,11.49
2023-04-11T08:31:46.628Z,11.62
2023-04-11T08:34:13.343Z,11.68
2023-04-11T08:36:39.870Z,11.68
2023-04-11T08:39:06.709Z,11.56
2023-04-11T08:41:33.632Z,11.59
2023-04-11T08:44:00.681Z,11.55
2023-04-11T08:46:27.427Z,11.76
2023-04-11T08:48:54.784Z,11.69
2023-04-11T08:51:26.929Z,11.86
2023-04-11T08:53:57.910Z,11.85
2023-04-11T08:56:24.769Z,11.91
2023-04-11T08:58:51.257Z,11.96
2023-04-11T09:01:34.212Z,12.23
2023-04-11T09:04:05.540Z,12.17
2023-04-11T09:06:33.678Z,12.39
2023-04-11T09:09:01.975Z,12.44
2023-04-11T09:11:28.478Z,12.62
2023-04-11T09:14:11.378Z,12.60
2023-04-11T09:16:54.156Z,12.47
2023-04-11T09:19:28.848Z,12.79
2023-04-11T09:21:58.099Z,12.70
2023-04-11T09:24:26.366Z,12.98
2023-04-11T09:27:09.489Z,12.86
2023-04-11T09:29:43.514Z,13.16
2023-04-11T09:32:31.075Z,12.93
2023-04-11T09:35:18.480Z,12.92
2023-04-11T09:37:53.341Z,13.29
2023-04-11T09:40:23.148Z,13.31
2023-04-11T09:42:58.238Z,13.28
2023-04-11T09:45:26.480Z,13.23
2023-04-11T09:47:55.550Z,13.31
2023-04-11T09:50:23.489Z,13.26
2023-04-11T09:52:50.142Z,13.30
2023-04-11T09:55:20.487Z,13.31
2023-04-11T09:57:52.250Z,13.25
2023-04-11T10:00:30.123Z,13.32
2023-04-11T10:02:57.027Z,13.34
2023-04-11T10:05:28.594Z,13.49
2023-04-11T10:08:32.570Z,13.14
2023-04-11T10:11:04.438Z,13.54
2023-04-11T10:13:42.651Z,13.70
2023-04-11T10:16:20.272Z,13.72
2023-04-11T10:18:52.982Z,13.75
2023-04-11T10:21:34.836Z,13.98
2023-04-11T10:24:16.370Z,13.81
2023-04-11T10:26:55.100Z,13.69
2023-04-11T10:29:30.231Z,13.83
2023-04-11T10:32:15.553Z,14.16
2023-04-11T10:34:54.194Z,14.30
2023-04-11T10:37:29.847Z,14.41
2023-04-11T10:40:04.628Z,14.45
2023-04-11T10:42:42.337Z,14.43
2023-04-11T10:45:22.043Z,14.11
2023-04-11T10:47:51.596Z,14.10
2023-04-11T10:50:27.178Z,14.07
2023-04-11T10:52:54.135Z,14.07
2023-04-11T10:55:21.002Z,14.04
2023-04-11T10:58:07.006Z,13.54
2023-04-11T11:00:48.896Z,13.43
2023-04-11T11:03:19.330Z,13.40
2023-04-11T11:05:46.914Z,13.29
2023-04-11T11:08:14.163Z,13.20
2023-04-11T11:10:43.089Z,13.11
2023-04-11T11:13:10.763Z,12.89
2023-04-11T11:15:37.937Z,12.69
2023-04-11T11:18:07.758Z,12.57
2023-04-11T11:20:36.028Z,12.22
2023-04-11T11:23:04.764Z,11.89
2023-04-11T11:25:31.660Z,11.61
2023-04-11T11:27:59.896Z,11.70
2023-04-11T11:30:27.118Z,11.94
2023-04-11T11:32:53.919Z,12.22
2023-04-11T11:35:20.777Z,12.52
2023-04-11T11:37:47.391Z,12.88
2023-04-11T11:40:14.075Z,13.26
2023-04-11T11:42:41.185Z,13.49
2023-04-11T11:45:18.134Z,13.40
2023-04-11T11:47:46.655Z,13.43
2023-04-11T11:50:33.841Z,13.34
2023-04-11T11:53:16.385Z,13.37
2023-04-11T11:55:43.576Z,13.45
2023-04-11T11:58:10.102Z,13.35
2023-04-11T12:00:41.016Z,13.14
2023-04-11T12:03:11.934Z,13.07
2023-04-11T12:05:38.708Z,13.05
2023-04-11T12:08:07.671Z,13.34
2023-04-11T12:10:41.724Z,13.52
2023-04-11T12:13:16.355Z,13.79
2023-04-11T12:15:55.796Z,14.32
2023-04-11T12:18:23.611Z,14.35
2023-04-11T12:20:50.805Z,14.12
2023-04-11T12:23:18.499Z,14.36
2023-04-11T12:25:45.901Z,14.40
2023-04-11T12:28:12.868Z,14.34
2023-04-11T12:30:42.247Z,14.18
2023-04-11T12:33:08.907Z,14.10
2023-04-11T12:35:35.496Z,14.07
2023-04-11T12:38:01.955Z,14.01
2023-04-11T12:40:29.776Z,13.99
2023-04-11T12:42:57.495Z,14.25
2023-04-11T12:45:24.715Z,15.12
2023-04-11T12:47:51.636Z,15.71
2023-04-11T12:50:18.304Z,16.18
2023-04-11T12:52:45.382Z,16.27
2023-04-11T12:55:13.198Z,16.85
2023-04-11T12:57:39.899Z,17.17
2023-04-11T13:00:07.255Z,17.11
2023-04-11T13:02:42.160Z,16.57
2023-04-11T13:05:11.088Z,16.69
2023-04-11T13:07:37.894Z,16.70
2023-04-11T13:10:07.888Z,16.81
2023-04-11T13:12:39.622Z,16.94
2023-04-11T13:15:08.111Z,16.80
2023-04-11T13:17:34.879Z,16.47
2023-04-11T13:20:01.452Z,17.08
2023-04-11T13:22:27.971Z,16.26
2023-04-11T13:24:54.421Z,16.40
2023-04-11T13:27:22.071Z,16.63
2023-04-11T13:29:48.737Z,17.13
2023-04-11T13:32:15.519Z,17.42
2023-04-11T13:34:42.449Z,17.21
2023-04-11T13:37:08.892Z,17.72
2023-04-11T13:39:35.339Z,17.32
2023-04-11T13:42:01.766Z,16.87
2023-04-11T13:44:28.268Z,16.53
2023-04-11T13:46:54.829Z,17.03
2023-04-11T13:49:21.261Z,17.52
2023-04-11T13:51:47.765Z,17.67
2023-04-11T13:54:14.222Z,18.13
2023-04-11T13:56:41.403Z,18.29
2023-04-11T13:59:07.833Z,18.41
2023-04-11T14:01:37.861Z,18.46
2023-04-11T14:04:04.686Z,17.62
2023-04-11T14:06:31.212Z,17.17
2023-04-11T14:08:57.811Z,17.44
2023-04-11T14:11:24.310Z,17.94
2023-04-11T14:13:51.006Z,18.52
2023-04-11T14:16:17.501Z,18.69
2023-04-11T14:18:44.602Z,18.92
2023-04-11T14:21:11.157Z,17.64
2023-04-11T14:23:37.671Z,17.46
2023-04-11T14:26:04.443Z,17.47
2023-04-11T14:28:31.108Z,17.85
2023-04-11T14:30:57.720Z,17.88
2023-04-11T14:33:24.334Z,18.24
2023-04-11T14:35:51.193Z,18.71
2023-04-11T14:38:17.672Z,18.36
2023-04-11T14:40:44.571Z,18.05
2023-04-11T14:43:11.265Z,18.78
2023-04-11T14:45:37.850Z,19.30
2023-04-11T14:48:04.718Z,18.86
2023-04-11T14:50:31.313Z,19.15
2023-04-11T14:52:57.914Z,19.01
2023-04-11T14:55:24.382Z,18.39
2023-04-11T14:57:55.918Z,18.58
2023-04-11T15:00:24.606Z,18.73
2023-04-11T15:02:54.266Z,19.10
2023-04-11T15:05:22.470Z,19.13
2023-04-11T15:07:50.855Z,19.43
2023-04-11T15:10:19.733Z,19.52
2023-04-11T15:12:46.250Z,19.34
2023-04-11T15:15:13.545Z,19.49
2023-04-11T15:17:48.420Z,19.73
2023-04-11T15:20:15.975Z,19.42
2023-04-11T15:22:45.100Z,18.97
2023-04-11T15:25:13.423Z,18.35
2023-04-11T15:27:40.877Z,18.24
2023-04-11T15:30:08.523Z,17.78
2023-04-11T15:32:35.269Z,17.61
2023-04-11T15:35:02.041Z,17.20
2023-04-11T15:37:28.687Z,17.40
2023-04-11T15:39:55.458Z,17.28
2023-04-11T15:42:21.979Z,17.40
2023-04-11T15:44:48.410Z,17.37
2023-04-11T15:47:16.488Z,17.10
2023-04-11T15:49:43.063Z,16.97
2023-04-11T15:52:09.541Z,17.08
2023-04-11T15:54:36.176Z,17.22
2023-04-11T15:57:03.575Z,17.07
2023-04-11T15:59:30.605Z,16.90
2023-04-11T16:01:58.247Z,16.96
2023-04-11T16:04:25.488Z,16.86
2023-04-11T16:06:52.599Z,16.73
2023-04-11T16:09:19.172Z,16.71
2023-04-11T16:11:45.739Z,16.70
2023-04-11T16:14:12.298Z,16.69
2023-04-11T16:16:38.874Z,16.63
2023-04-11T16:19:06.436Z,16.41
2023-04-11T16:21:32.893Z,16.35
2023-04-11T16:23:59.594Z,16.22
2023-04-11T16:26:26.999Z,16.12
2023-04-11T16:28:53.494Z,16.01
2023-04-11T16:31:24.406Z,15.79
2023-04-11T16:33:57.380Z,15.92
2023-04-11T16:36:24.281Z,16.02
2023-04-11T16:38:50.778Z,16.07
2023-04-11T16:41:17.435Z,16.10
2023-04-11T16:43:44.370Z,16.21
2023-04-11T16:46:13.260Z,16.16
2023-04-11T16:48:41.299Z,16.08
2023-04-11T16:51:10.845Z,15.99
2023-04-11T16:53:38.069Z,15.95
2023-04-11T16:56:04.794Z,15.89
2023-04-11T16:58:32.197Z,15.63
2023-04-11T17:00:59.901Z,15.53
2023-04-11T17:03:27.265Z,15.49
2023-04-11T17:05:54.012Z,15.48
2023-04-11T17:08:20.670Z,15.44
2023-04-11T17:10:47.133Z,15.27
2023-04-11T17:13:14.764Z,15.43
2023-04-11T17:15:41.411Z,15.29
2023-04-11T17:18:07.985Z,15.22
2023-04-11T17:20:34.507Z,15.30
2023-04-11T17:23:01.031Z,15.32
2023-04-11T17:25:29.926Z,15.15
2023-04-11T17:27:57.147Z,15.21
2023-04-11T17:30:23.635Z,15.05
2023-04-11T17:32:50.160Z,14.96
2023-04-11T17:35:16.647Z,14.83
2023-04-11T17:37:43.086Z,14.85
2023-04-11T17:40:13.058Z,14.73
2023-04-11T17:42:40.396Z,14.59
2023-04-11T17:45:17.615Z,14.51
2023-04-11T17:47:46.404Z,14.57
2023-04-11T17:50:13.786Z,14.51
2023-04-11T17:52:41.741Z,14.42
2023-04-11T17:55:09.657Z,14.31
2023-04-11T17:57:36.259Z,14.34
2023-04-11T18:00:05.516Z,14.27
2023-04-11T18:02:32.734Z,14.29
2023-04-11T18:05:00.926Z,14.26
2023-04-11T18:07:28.920Z,14.25
2023-04-11T18:09:55.354Z,14.25
2023-04-11T18:12:21.903Z,14.19
2023-04-11T18:14:56.854Z,14.14
2023-04-11T18:17:23.391Z,14.07
2023-04-11T18:19:49.898Z,14.06
2023-04-11T18:22:16.481Z,13.94
2023-04-11T18:24:42.942Z,13.96
2023-04-11T18:27:10.498Z,13.90
2023-04-11T18:29:37.006Z,13.92
2023-04-11T18:32:05.986Z,13.82
2023-04-11T18:34:32.470Z,13.77
2023-04-11T18:36:58.924Z,13.69
2023-04-11T18:39:25.780Z,13.62
2023-04-11T18:41:52.214Z,13.61
2023-04-11T18:44:18.823Z,13.64
2023-04-11T18:46:45.332Z,13.57
2023-04-11T18:49:13.632Z,13.52
2023-04-11T18:51:40.912Z,13.42
2023-04-11T18:54:07.375Z,13.47
2023-04-11T18:56:34.814Z,13.45
2023-04-11T18:59:06.110Z,13.36
2023-04-11T19:01:34.553Z,13.36
2023-04-11T19:04:01.671Z,13.34
2023-04-11T19:06:28.483Z,13.31
2023-04-11T19:08:54.926Z,13.30
2023-04-11T19:11:22.123Z,13.15
2023-04-11T19:13:48.563Z,13.18
2023-04-11T19:16:15.112Z,13.16
2023-04-11T19:18:41.631Z,13.14
2023-04-11T19:21:08.101Z,13.08
2023-04-11T19:23:34.625Z,13.07
2023-04-11T19:26:02.215Z,13.07
2023-04-11T19:28:28.707Z,13.03
2023-04-11T19:30:55.166Z,13.03
2023-04-11T19:33:23.873Z,12.97
2023-04-11T19:35:50.456Z,12.91
2023-04-11T19:38:16.905Z,12.88
2023-04-11T19:40:43.452Z,12.81
2023-04-11T19:43:09.893Z,12.74
2023-04-11T19:45:36.414Z,12.66
2023-04-11T19:48:03.028Z,12.63
2023-04-11T19:50:29.641Z,12.59
2023-04-11T19:52:59.321Z,12.56
2023-04-11T19:55:27.259Z,12.49
2023-04-11T19:57:53.751Z,12.48
2023-04-11T20:00:20.290Z,12.39
2023-04-11T20:02:48.504Z,12.37
2023-04-11T20:05:19.323Z,12.34
2023-04-11T20:07:46.353Z,12.28
2023-04-11T20:10:14.243Z,12.27
2023-04-11T20:12:41.198Z,12.26
2023-04-11T20:15:08.472Z,12.17
2023-04-11T20:17:35.669Z,12.20
2023-04-11T20:20:05.819Z,12.12
2023-04-11T20:22:32.479Z,12.15
2023-04-11T20:24:58.916Z,12.12
2023-04-11T20:27:28.255Z,12.14
2023-04-11T20:29:56.577Z,12.07
2023-04-11T20:32:23.102Z,12.09
2023-04-11T20:34:49.641Z,12.03
2023-04-11T20:37:18.368Z,12.03
2023-04-11T20:39:45.719Z,12.03
2023-04-11T20:42:12.257Z,11.98
2023-04-11T20:44:38.812Z,11.99
2023-04-11T20:47:05.248Z,12.03
2023-04-11T20:49:31.782Z,11.99
2023-04-11T20:51:58.516Z,11.99
2023-04-11T20:54:25.018Z,12.00
2023-04-11T20:56:52.374Z,11.97
2023-04-11T20:59:18.845Z,12.00
2023-04-11T21:01:45.502Z,11.97
2023-04-11T21:04:12.987Z,12.00
2023-04-11T21:06:39.620Z,12.02
2023-04-11T21:09:06.077Z,12.00
2023-04-11T21:11:33.008Z,12.03
2023-04-11T21:13:59.598Z,12.05
2023-04-11T21:16:26.232Z,12.07
2023-04-11T21:18:52.730Z,12.10
2023-04-11T21:21:19.343Z,12.14
2023-04-11T21:23:45.963Z,12.09
2023-04-11T21:26:12.423Z,12.12
2023-04-11T21:28:38.991Z,12.15
2023-04-11T21:31:05.843Z,12.15
2023-04-11T21:33:32.404Z,12.15
2023-04-11T21:35:58.877Z,12.05
2023-04-11T21:38:25.442Z,12.13
2023-04-11T21:40:52.395Z,12.15
2023-04-11T21:43:18.845Z,12.17
2023-04-11T21:45:45.604Z,12.09
2023-04-11T21:48:12.215Z,12.11
2023-04-11T21:50:38.697Z,12.14
2023-04-11T21:53:05.231Z,12.14
2023-04-11T21:55:31.705Z,12.13
2023-04-11T21:57:58.463Z,12.12
2023-04-11T22:00:25.170Z,12.11
2023-04-11T22:02:51.933Z,12.07
2023-04-11T22:05:19.220Z,12.04
2023-04-11T22:07:48.645Z,12.07
2023-04-11T22:10:15.931Z,12.06
2023-04-11T22:12:45.479Z,12.08
2023-04-11T22:15:12.884Z,12.06
2023-04-11T22:17:42.221Z,12.12
2023-04-11T22:20:09.844Z,12.10
2023-04-11T22:22:36.359Z,12.15
2023-04-11T22:25:03.179Z,12.12
2023-04-11T22:27:29.703Z,12.08
2023-04-11T22:29:56.206Z,12.08
2023-04-11T22:32:23.722Z,12.12
2023-04-11T22:34:50.245Z,12.12
2023-04-11T22:37:16.810Z,12.13
2023-04-11T22:39:43.268Z,12.14
2023-04-11T22:42:11.415Z,12.17
2023-04-11T22:44:37.903Z,12.17
2023-04-11T22:47:07.186Z,12.18
2023-04-11T22:49:40.215Z,12.19
2023-04-11T22:52:14.388Z,12.17
2023-04-11T22:54:42.454Z,12.18
2023-04-11T22:57:09.115Z,12.16
2023-04-11T22:59:35.618Z,12.15
2023-04-11T23:02:02.133Z,12.16
2023-04-11T23:04:32.445Z,12.08
2023-04-11T23:06:59.102Z,12.03
2023-04-11T23:09:26.313Z,12.09
2023-04-11T23:11:53.410Z,12.12
2023-04-11T23:14:22.277Z,12.08
2023-04-11T23:16:48.854Z,12.03
2023-04-11T23:19:15.593Z,12.03
2023-04-11T23:21:42.200Z,11.99
2023-04-11T23:24:09.126Z,12.02
2023-04-11T23:26:36.067Z,11.97
2023-04-11T23:29:02.757Z,12.00
2023-04-11T23:31:30.932Z,11.98
2023-04-11T23:33:57.552Z,11.96
2023-04-11T23:36:24.227Z,11.97
2023-04-11T23:38:50.754Z,12.00
2023-04-11T23:41:17.224Z,11.94
2023-04-11T23:43:43.717Z,11.99
2023-04-11T23:46:10.306Z,11.98
2023-04-11T23:48:37.016Z,11.98
2023-04-11T23:51:03.673Z,11.99
2023-04-11T23:53:31.551Z,12.03
2023-04-11T23:55:58.128Z,12.01
2023-04-11T23:58:24.637Z,11.97
